sensor_id;sensor_type;location;lat;lon;timestamp;P1;durP1;ratioP1;P2;durP2;ratioP2
3070;SDS011;1546;47.208;9.038;2023-05-10T00:01:44;11.43;;;10.82;;
3070;SDS011;1546;47.208;9.038;2023-05-10T00:04:10;10.52;;;9.93;;
3070;SDS011;1546;47.208;9.038;2023-05-10T00:06:37;12.75;;;11.93;;
3070;SDS011;1546;47.208;9.038;2023-05-10T00:09:04;9.60;;;8.80;;
3070;SDS011;1546;47.208;9.038;2023-05-10T00:11:31;7.30;;;6.80;;
3070;SDS011;1546;47.208;9.038;2023-05-10T00:14:00;6.45;;;5.95;;
3070;SDS011;1546;47.208;9.038;2023-05-10T00:16:27;6.35;;;5.85;;
3070;SDS011;1546;47.208;9.038;2023-05-10T00:18:54;7.65;;;7.15;;
3070;SDS011;1546;47.208;9.038;2023-05-10T00:21:20;9.82;;;9.23;;
3070;SDS011;1546;47.208;9.038;2023-05-10T00:23:47;11.50;;;10.85;;
3070;SDS011;1546;47.208;9.038;2023-05-10T00:26:14;12.40;;;11.80;;
3070;SDS011;1546;47.208;9.038;2023-05-10T00:28:41;14.23;;;13.52;;
3070;SDS011;1546;47.208;9.038;2023-05-10T00:31:09;11.95;;;11.35;;
3070;SDS011;1546;47.208;9.038;2023-05-10T00:33:36;13.75;;;13.07;;
3070;SDS011;1546;47.208;9.038;2023-05-10T00:36:03;15.30;;;14.60;;
3070;SDS011;1546;47.208;9.038;2023-05-10T00:38:32;14.98;;;14.27;;
3070;SDS011;1546;47.208;9.038;2023-05-10T00:40:59;14.77;;;14.07;;
3070;SDS011;1546;47.208;9.038;2023-05-10T00:43:26;16.25;;;15.45;;
3070;SDS011;1546;47.208;9.038;2023-05-10T00:45:53;19.13;;;18.00;;
3070;SDS011;1546;47.208;9.038;2023-05-10T00:48:22;17.33;;;16.52;;
3070;SDS011;1546;47.208;9.038;2023-05-10T00:50:49;18.65;;;17.80;;
3070;SDS011;1546;47.208;9.038;2023-05-10T00:53:16;18.05;;;17.25;;
3070;SDS011;1546;47.208;9.038;2023-05-10T00:55:43;17.52;;;16.77;;
3070;SDS011;1546;47.208;9.038;2023-05-10T00:58:10;19.42;;;18.63;;
3070;SDS011;1546;47.208;9.038;2023-05-10T01:00:37;22.23;;;21.33;;
3070;SDS011;1546;47.208;9.038;2023-05-10T01:03:09;18.25;;;17.45;;
3070;SDS011;1546;47.208;9.038;2023-05-10T01:05:37;18.48;;;17.67;;
3070;SDS011;1546;47.208;9.038;2023-05-10T01:08:04;14.50;;;13.80;;
3070;SDS011;1546;47.208;9.038;2023-05-10T01:10:31;17.80;;;17.00;;
3070;SDS011;1546;47.208;9.038;2023-05-10T01:12:58;16.65;;;15.85;;
3070;SDS011;1546;47.208;9.038;2023-05-10T01:15:26;15.10;;;14.38;;
3070;SDS011;1546;47.208;9.038;2023-05-10T01:17:53;12.63;;;12.02;;
3070;SDS011;1546;47.208;9.038;2023-05-10T01:20:20;14.27;;;13.57;;
3070;SDS011;1546;47.208;9.038;2023-05-10T01:25:52;15.00;;;14.30;;
3070;SDS011;1546;47.208;9.038;2023-05-10T01:28:55;15.05;;;14.35;;
3070;SDS011;1546;47.208;9.038;2023-05-10T01:31:48;12.00;;;11.40;;
3070;SDS011;1546;47.208;9.038;2023-05-10T01:34:44;10.00;;;9.40;;
3070;SDS011;1546;47.208;9.038;2023-05-10T01:37:20;10.63;;;10.02;;
3070;SDS011;1546;47.208;9.038;2023-05-10T01:39:55;11.10;;;10.50;;
3070;SDS011;1546;47.208;9.038;2023-05-10T01:42:26;9.60;;;8.80;;
3070;SDS011;1546;47.208;9.038;2023-05-10T01:45:02;6.88;;;6.40;;
3070;SDS011;1546;47.208;9.038;2023-05-10T01:47:38;8.32;;;7.82;;
3070;SDS011;1546;47.208;9.038;2023-05-10T01:50:09;8.48;;;7.97;;
3070;SDS011;1546;47.208;9.038;2023-05-10T01:52:41;9.25;;;8.55;;
3070;SDS011;1546;47.208;9.038;2023-05-10T01:55:16;9.45;;;5.65;;
3070;SDS011;1546;47.208;9.038;2023-05-10T01:57:44;4.57;;;4.07;;
3070;SDS011;1546;47.208;9.038;2023-05-10T02:00:14;5.05;;;4.55;;
3070;SDS011;1546;47.208;9.038;2023-05-10T02:02:44;6.57;;;5.97;;
3070;SDS011;1546;47.208;9.038;2023-05-10T02:05:12;5.55;;;5.05;;
3070;SDS011;1546;47.208;9.038;2023-05-10T02:07:40;6.50;;;6.00;;
3070;SDS011;1546;47.208;9.038;2023-05-10T02:10:09;8.85;;;8.25;;
3070;SDS011;1546;47.208;9.038;2023-05-10T02:12:39;7.40;;;6.90;;
3070;SDS011;1546;47.208;9.038;2023-05-10T02:15:08;8.27;;;7.78;;
3070;SDS011;1546;47.208;9.038;2023-05-10T02:17:37;9.98;;;9.35;;
3070;SDS011;1546;47.208;9.038;2023-05-10T02:20:07;11.55;;;10.85;;
3070;SDS011;1546;47.208;9.038;2023-05-10T02:22:36;10.43;;;9.85;;
3070;SDS011;1546;47.208;9.038;2023-05-10T02:25:04;10.05;;;9.35;;
3070;SDS011;1546;47.208;9.038;2023-05-10T02:27:34;11.07;;;10.38;;
3070;SDS011;1546;47.208;9.038;2023-05-10T02:30:03;13.57;;;12.88;;
3070;SDS011;1546;47.208;9.038;2023-05-10T02:32:32;13.90;;;13.30;;
3070;SDS011;1546;47.208;9.038;2023-05-10T02:35:01;12.77;;;12.18;;
3070;SDS011;1546;47.208;9.038;2023-05-10T02:37:30;13.27;;;12.65;;
3070;SDS011;1546;47.208;9.038;2023-05-10T02:39:59;14.30;;;13.50;;
3070;SDS011;1546;47.208;9.038;2023-05-10T02:42:29;16.75;;;15.90;;
3070;SDS011;1546;47.208;9.038;2023-05-10T02:44:59;16.10;;;15.30;;
3070;SDS011;1546;47.208;9.038;2023-05-10T02:47:28;6.30;;;5.90;;
3070;SDS011;1546;47.208;9.038;2023-05-10T02:49:55;5.50;;;5.10;;
3070;SDS011;1546;47.208;9.038;2023-05-10T02:52:23;7.80;;;7.30;;
3070;SDS011;1546;47.208;9.038;2023-05-10T02:54:54;7.97;;;7.47;;
3070;SDS011;1546;47.208;9.038;2023-05-10T02:57:25;8.85;;;8.25;;
3070;SDS011;1546;47.208;9.038;2023-05-10T02:59:54;8.45;;;7.95;;
3070;SDS011;1546;47.208;9.038;2023-05-10T03:02:21;8.23;;;7.72;;
3070;SDS011;1546;47.208;9.038;2023-05-10T03:04:48;6.28;;;5.88;;
3070;SDS011;1546;47.208;9.038;2023-05-10T03:07:16;5.97;;;5.47;;
3070;SDS011;1546;47.208;9.038;2023-05-10T03:09:46;10.45;;;9.85;;
3070;SDS011;1546;47.208;9.038;2023-05-10T03:12:15;14.02;;;13.32;;
3070;SDS011;1546;47.208;9.038;2023-05-10T03:14:52;18.58;;;17.77;;
3070;SDS011;1546;47.208;9.038;2023-05-10T03:17:29;18.83;;;18.02;;
3070;SDS011;1546;47.208;9.038;2023-05-10T03:20:03;21.40;;;20.50;;
3070;SDS011;1546;47.208;9.038;2023-05-10T03:22:34;26.73;;;25.73;;
3070;SDS011;1546;47.208;9.038;2023-05-10T03:25:04;24.02;;;23.10;;
3070;SDS011;1546;47.208;9.038;2023-05-10T03:27:35;16.23;;;15.52;;
3070;SDS011;1546;47.208;9.038;2023-05-10T03:30:04;13.90;;;13.20;;
3070;SDS011;1546;47.208;9.038;2023-05-10T03:32:34;15.07;;;14.38;;
3070;SDS011;1546;47.208;9.038;2023-05-10T03:35:01;14.38;;;13.68;;
3070;SDS011;1546;47.208;9.038;2023-05-10T03:37:32;12.05;;;11.45;;
3070;SDS011;1546;47.208;9.038;2023-05-10T03:39:59;9.02;;;8.32;;
3070;SDS011;1546;47.208;9.038;2023-05-10T03:42:26;10.68;;;9.88;;
3070;SDS011;1546;47.208;9.038;2023-05-10T03:44:54;7.55;;;7.05;;
3070;SDS011;1546;47.208;9.038;2023-05-10T03:47:21;7.72;;;7.00;;
3070;SDS011;1546;47.208;9.038;2023-05-10T03:49:48;7.93;;;7.43;;
3070;SDS011;1546;47.208;9.038;2023-05-10T03:52:15;8.23;;;7.72;;
3070;SDS011;1546;47.208;9.038;2023-05-10T03:54:42;7.95;;;7.30;;
3070;SDS011;1546;47.208;9.038;2023-05-10T03:57:08;8.20;;;7.60;;
3070;SDS011;1546;47.208;9.038;2023-05-10T03:59:35;10.88;;;10.27;;
3070;SDS011;1546;47.208;9.038;2023-05-10T04:02:03;6.80;;;6.30;;
3070;SDS011;1546;47.208;9.038;2023-05-10T04:04:30;6.00;;;5.50;;
3070;SDS011;1546;47.208;9.038;2023-05-10T04:06:57;8.15;;;7.55;;
3070;SDS011;1546;47.208;9.038;2023-05-10T04:09:24;9.02;;;8.43;;
3070;SDS011;1546;47.208;9.038;2023-05-10T04:11:51;7.35;;;6.75;;
3070;SDS011;1546;47.208;9.038;2023-05-10T04:14:18;7.50;;;7.00;;
3070;SDS011;1546;47.208;9.038;2023-05-10T04:16:45;7.43;;;6.38;;
3070;SDS011;1546;47.208;9.038;2023-05-10T04:19:13;5.53;;;5.00;;
3070;SDS011;1546;47.208;9.038;2023-05-10T04:21:40;6.68;;;6.18;;
3070;SDS011;1546;47.208;9.038;2023-05-10T04:24:07;6.55;;;6.05;;
3070;SDS011;1546;47.208;9.038;2023-05-10T04:26:33;8.27;;;7.60;;
3070;SDS011;1546;47.208;9.038;2023-05-10T04:29:00;6.53;;;5.93;;
3070;SDS011;1546;47.208;9.038;2023-05-10T04:31:27;6.75;;;6.25;;
3070;SDS011;1546;47.208;9.038;2023-05-10T04:33:54;6.75;;;6.25;;
3070;SDS011;1546;47.208;9.038;2023-05-10T04:36:22;8.43;;;7.82;;
3070;SDS011;1546;47.208;9.038;2023-05-10T04:38:49;7.75;;;7.22;;
3070;SDS011;1546;47.208;9.038;2023-05-10T04:41:16;7.18;;;6.68;;
3070;SDS011;1546;47.208;9.038;2023-05-10T04:43:42;7.45;;;6.85;;
3070;SDS011;1546;47.208;9.038;2023-05-10T04:46:09;6.13;;;5.63;;
3070;SDS011;1546;47.208;9.038;2023-05-10T04:48:36;9.50;;;8.90;;
3070;SDS011;1546;47.208;9.038;2023-05-10T04:51:03;7.43;;;6.80;;
3070;SDS011;1546;47.208;9.038;2023-05-10T04:53:32;5.95;;;5.45;;
3070;SDS011;1546;47.208;9.038;2023-05-10T04:55:59;5.50;;;5.00;;
3070;SDS011;1546;47.208;9.038;2023-05-10T04:58:26;5.40;;;4.90;;
3070;SDS011;1546;47.208;9.038;2023-05-10T05:00:53;5.65;;;5.10;;
3070;SDS011;1546;47.208;9.038;2023-05-10T05:03:20;4.88;;;4.38;;
3070;SDS011;1546;47.208;9.038;2023-05-10T05:05:47;4.97;;;4.57;;
3070;SDS011;1546;47.208;9.038;2023-05-10T05:08:14;6.75;;;5.93;;
3070;SDS011;1546;47.208;9.038;2023-05-10T05:10:42;6.25;;;5.75;;
3070;SDS011;1546;47.208;9.038;2023-05-10T05:13:09;5.05;;;4.55;;
3070;SDS011;1546;47.208;9.038;2023-05-10T05:15:36;7.20;;;5.13;;
3070;SDS011;1546;47.208;9.038;2023-05-10T05:18:03;8.32;;;7.40;;
3070;SDS011;1546;47.208;9.038;2023-05-10T05:20:31;9.15;;;8.25;;
3070;SDS011;1546;47.208;9.038;2023-05-10T05:22:58;5.97;;;5.38;;
3070;SDS011;1546;47.208;9.038;2023-05-10T05:25:25;7.70;;;7.10;;
3070;SDS011;1546;47.208;9.038;2023-05-10T05:27:53;8.00;;;7.50;;
3070;SDS011;1546;47.208;9.038;2023-05-10T05:30:20;8.40;;;7.78;;
3070;SDS011;1546;47.208;9.038;2023-05-10T05:32:47;12.55;;;11.75;;
3070;SDS011;1546;47.208;9.038;2023-05-10T05:35:14;11.25;;;10.65;;
3070;SDS011;1546;47.208;9.038;2023-05-10T05:37:41;12.77;;;11.98;;
3070;SDS011;1546;47.208;9.038;2023-05-10T05:40:08;14.98;;;14.18;;
3070;SDS011;1546;47.208;9.038;2023-05-10T05:42:38;15.13;;;14.43;;
3070;SDS011;1546;47.208;9.038;2023-05-10T05:45:07;16.83;;;16.02;;
3070;SDS011;1546;47.208;9.038;2023-05-10T05:47:37;13.55;;;12.75;;
3070;SDS011;1546;47.208;9.038;2023-05-10T05:50:05;17.27;;;16.35;;
3070;SDS011;1546;47.208;9.038;2023-05-10T05:52:32;13.30;;;12.60;;
3070;SDS011;1546;47.208;9.038;2023-05-10T05:54:59;14.27;;;13.48;;
3070;SDS011;1546;47.208;9.038;2023-05-10T05:57:26;12.70;;;12.00;;
3070;SDS011;1546;47.208;9.038;2023-05-10T05:59:53;12.27;;;11.57;;
3070;SDS011;1546;47.208;9.038;2023-05-10T06:02:21;9.75;;;9.15;;
3070;SDS011;1546;47.208;9.038;2023-05-10T06:04:48;9.27;;;8.68;;
3070;SDS011;1546;47.208;9.038;2023-05-10T06:07:15;7.43;;;6.93;;
3070;SDS011;1546;47.208;9.038;2023-05-10T06:09:41;8.57;;;7.95;;
3070;SDS011;1546;47.208;9.038;2023-05-10T06:12:08;8.23;;;7.63;;
3070;SDS011;1546;47.208;9.038;2023-05-10T06:14:36;6.45;;;6.00;;
3070;SDS011;1546;47.208;9.038;2023-05-10T06:17:03;7.15;;;6.45;;
3070;SDS011;1546;47.208;9.038;2023-05-10T06:19:33;6.75;;;6.25;;
3070;SDS011;1546;47.208;9.038;2023-05-10T06:21:59;7.47;;;6.82;;
3070;SDS011;1546;47.208;9.038;2023-05-10T06:24:26;8.05;;;7.40;;
3070;SDS011;1546;47.208;9.038;2023-05-10T06:26:53;4.28;;;3.88;;
3070;SDS011;1546;47.208;9.038;2023-05-10T06:29:20;4.82;;;4.32;;
3070;SDS011;1546;47.208;9.038;2023-05-10T06:31:47;5.45;;;4.25;;
3070;SDS011;1546;47.208;9.038;2023-05-10T06:34:14;5.75;;;5.20;;
3070;SDS011;1546;47.208;9.038;2023-05-10T06:36:42;5.53;;;5.00;;
3070;SDS011;1546;47.208;9.038;2023-05-10T06:39:09;5.45;;;4.95;;
3070;SDS011;1546;47.208;9.038;2023-05-10T06:41:37;5.20;;;4.60;;
3070;SDS011;1546;47.208;9.038;2023-05-10T06:44:03;3.95;;;3.55;;
3070;SDS011;1546;47.208;9.038;2023-05-10T06:46:30;6.10;;;3.78;;
3070;SDS011;1546;47.208;9.038;2023-05-10T06:48:57;5.30;;;3.40;;
3070;SDS011;1546;47.208;9.038;2023-05-10T06:51:24;7.75;;;3.40;;
3070;SDS011;1546;47.208;9.038;2023-05-10T06:53:52;4.40;;;3.60;;
3070;SDS011;1546;47.208;9.038;2023-05-10T06:56:19;3.72;;;3.17;;
3070;SDS011;1546;47.208;9.038;2023-05-10T06:58:46;3.80;;;2.80;;
3070;SDS011;1546;47.208;9.038;2023-05-10T07:01:14;4.88;;;3.30;;
3070;SDS011;1546;47.208;9.038;2023-05-10T07:03:40;7.45;;;4.57;;
3070;SDS011;1546;47.208;9.038;2023-05-10T07:06:07;8.85;;;4.18;;
3070;SDS011;1546;47.208;9.038;2023-05-10T07:08:34;6.82;;;3.58;;
3070;SDS011;1546;47.208;9.038;2023-05-10T07:11:03;4.00;;;2.42;;
3070;SDS011;1546;47.208;9.038;2023-05-10T07:13:32;3.83;;;1.80;;
3070;SDS011;1546;47.208;9.038;2023-05-10T07:15:59;4.32;;;2.38;;
3070;SDS011;1546;47.208;9.038;2023-05-10T07:18:27;3.60;;;1.90;;
3070;SDS011;1546;47.208;9.038;2023-05-10T07:20:54;4.40;;;1.27;;
3070;SDS011;1546;47.208;9.038;2023-05-10T07:23:24;3.53;;;1.50;;
3070;SDS011;1546;47.208;9.038;2023-05-10T07:25:51;4.80;;;1.77;;
3070;SDS011;1546;47.208;9.038;2023-05-10T07:28:19;3.70;;;1.65;;
3070;SDS011;1546;47.208;9.038;2023-05-10T07:30:46;3.33;;;1.33;;
3070;SDS011;1546;47.208;9.038;2023-05-10T07:33:14;3.40;;;1.40;;
3070;SDS011;1546;47.208;9.038;2023-05-10T07:35:41;3.50;;;1.70;;
3070;SDS011;1546;47.208;9.038;2023-05-10T07:38:08;3.90;;;2.10;;
3070;SDS011;1546;47.208;9.038;2023-05-10T07:40:36;3.80;;;1.77;;
3070;SDS011;1546;47.208;9.038;2023-05-10T07:43:03;3.33;;;1.25;;
3070;SDS011;1546;47.208;9.038;2023-05-10T07:45:31;5.00;;;1.65;;
3070;SDS011;1546;47.208;9.038;2023-05-10T07:47:59;3.92;;;2.05;;
3070;SDS011;1546;47.208;9.038;2023-05-10T07:50:25;5.43;;;1.83;;
3070;SDS011;1546;47.208;9.038;2023-05-10T07:52:52;3.30;;;1.10;;
3070;SDS011;1546;47.208;9.038;2023-05-10T07:55:19;4.05;;;1.20;;
3070;SDS011;1546;47.208;9.038;2023-05-10T07:57:47;3.22;;;0.90;;
3070;SDS011;1546;47.208;9.038;2023-05-10T08:00:16;3.13;;;0.75;;
3070;SDS011;1546;47.208;9.038;2023-05-10T08:02:46;4.50;;;1.10;;
3070;SDS011;1546;47.208;9.038;2023-05-10T08:05:13;3.20;;;1.20;;
3070;SDS011;1546;47.208;9.038;2023-05-10T08:07:40;4.18;;;1.00;;
3070;SDS011;1546;47.208;9.038;2023-05-10T08:10:08;3.05;;;0.90;;
3070;SDS011;1546;47.208;9.038;2023-05-10T08:12:36;3.80;;;1.50;;
3070;SDS011;1546;47.208;9.038;2023-05-10T08:15:03;3.40;;;1.40;;
3070;SDS011;1546;47.208;9.038;2023-05-10T08:17:31;3.95;;;1.67;;
3070;SDS011;1546;47.208;9.038;2023-05-10T08:19:59;3.47;;;1.27;;
3070;SDS011;1546;47.208;9.038;2023-05-10T08:22:26;3.72;;;1.30;;
3070;SDS011;1546;47.208;9.038;2023-05-10T08:24:53;3.10;;;1.10;;
3070;SDS011;1546;47.208;9.038;2023-05-10T08:27:20;3.10;;;0.90;;
3070;SDS011;1546;47.208;9.038;2023-05-10T08:29:47;3.40;;;0.98;;
3070;SDS011;1546;47.208;9.038;2023-05-10T08:32:14;5.80;;;1.45;;
3070;SDS011;1546;47.208;9.038;2023-05-10T08:34:40;3.65;;;0.70;;
3070;SDS011;1546;47.208;9.038;2023-05-10T08:37:09;5.47;;;1.25;;
3070;SDS011;1546;47.208;9.038;2023-05-10T08:39:38;3.22;;;0.88;;
3070;SDS011;1546;47.208;9.038;2023-05-10T08:42:04;5.15;;;2.35;;
3070;SDS011;1546;47.208;9.038;2023-05-10T08:44:34;3.97;;;0.98;;
3070;SDS011;1546;47.208;9.038;2023-05-10T08:47:02;4.40;;;1.45;;
3070;SDS011;1546;47.208;9.038;2023-05-10T08:49:31;5.28;;;0.80;;
3070;SDS011;1546;47.208;9.038;2023-05-10T08:51:59;4.10;;;0.82;;
3070;SDS011;1546;47.208;9.038;2023-05-10T08:54:31;4.25;;;1.00;;
3070;SDS011;1546;47.208;9.038;2023-05-10T08:56:58;4.13;;;1.27;;
3070;SDS011;1546;47.208;9.038;2023-05-10T08:59:25;3.95;;;1.00;;
3070;SDS011;1546;47.208;9.038;2023-05-10T09:01:53;3.08;;;0.80;;
3070;SDS011;1546;47.208;9.038;2023-05-10T09:04:21;3.40;;;0.90;;
3070;SDS011;1546;47.208;9.038;2023-05-10T09:06:48;4.43;;;1.10;;
3070;SDS011;1546;47.208;9.038;2023-05-10T09:09:15;3.10;;;0.73;;
3070;SDS011;1546;47.208;9.038;2023-05-10T09:11:44;3.50;;;0.75;;
3070;SDS011;1546;47.208;9.038;2023-05-10T09:14:12;3.38;;;0.88;;
3070;SDS011;1546;47.208;9.038;2023-05-10T09:16:39;3.10;;;0.70;;
3070;SDS011;1546;47.208;9.038;2023-05-10T09:19:07;3.40;;;0.80;;
3070;SDS011;1546;47.208;9.038;2023-05-10T09:21:34;3.55;;;0.98;;
3070;SDS011;1546;47.208;9.038;2023-05-10T09:24:04;3.10;;;0.90;;
3070;SDS011;1546;47.208;9.038;2023-05-10T09:26:32;5.25;;;1.02;;
3070;SDS011;1546;47.208;9.038;2023-05-10T09:29:02;3.83;;;0.80;;
3070;SDS011;1546;47.208;9.038;2023-05-10T09:31:46;3.45;;;0.85;;
3070;SDS011;1546;47.208;9.038;2023-05-10T09:34:16;4.43;;;0.80;;
3070;SDS011;1546;47.208;9.038;2023-05-10T09:36:54;3.60;;;0.95;;
3070;SDS011;1546;47.208;9.038;2023-05-10T09:39:29;3.63;;;0.80;;
3070;SDS011;1546;47.208;9.038;2023-05-10T09:41:58;3.28;;;0.77;;
3070;SDS011;1546;47.208;9.038;2023-05-10T09:44:27;3.20;;;0.82;;
3070;SDS011;1546;47.208;9.038;2023-05-10T09:46:54;4.97;;;0.98;;
3070;SDS011;1546;47.208;9.038;2023-05-10T09:49:21;3.28;;;0.90;;
3070;SDS011;1546;47.208;9.038;2023-05-10T09:51:57;3.78;;;1.13;;
3070;SDS011;1546;47.208;9.038;2023-05-10T09:54:26;3.40;;;0.90;;
3070;SDS011;1546;47.208;9.038;2023-05-10T09:56:53;8.23;;;1.10;;
3070;SDS011;1546;47.208;9.038;2023-05-10T09:59:20;3.08;;;0.80;;
3070;SDS011;1546;47.208;9.038;2023-05-10T10:01:50;3.50;;;1.05;;
3070;SDS011;1546;47.208;9.038;2023-05-10T10:04:17;3.67;;;0.85;;
3070;SDS011;1546;47.208;9.038;2023-05-10T10:06:45;3.83;;;1.33;;
3070;SDS011;1546;47.208;9.038;2023-05-10T10:09:13;4.25;;;1.23;;
3070;SDS011;1546;47.208;9.038;2023-05-10T10:11:40;3.90;;;0.90;;
3070;SDS011;1546;47.208;9.038;2023-05-10T10:14:07;3.95;;;1.38;;
3070;SDS011;1546;47.208;9.038;2023-05-10T10:16:34;4.65;;;1.23;;
3070;SDS011;1546;47.208;9.038;2023-05-10T10:19:02;4.00;;;0.90;;
3070;SDS011;1546;47.208;9.038;2023-05-10T10:21:29;5.90;;;1.10;;
3070;SDS011;1546;47.208;9.038;2023-05-10T10:23:57;3.95;;;0.85;;
3070;SDS011;1546;47.208;9.038;2023-05-10T10:26:24;3.90;;;1.10;;
3070;SDS011;1546;47.208;9.038;2023-05-10T10:28:56;4.80;;;1.20;;
3070;SDS011;1546;47.208;9.038;2023-05-10T10:31:36;3.30;;;0.95;;
3070;SDS011;1546;47.208;9.038;2023-05-10T10:34:08;8.30;;;1.88;;
3070;SDS011;1546;47.208;9.038;2023-05-10T10:36:40;3.08;;;0.80;;
3070;SDS011;1546;47.208;9.038;2023-05-10T10:39:10;5.70;;;1.05;;
3070;SDS011;1546;47.208;9.038;2023-05-10T10:41:38;4.70;;;1.33;;
3070;SDS011;1546;47.208;9.038;2023-05-10T10:47:09;3.50;;;1.13;;
3070;SDS011;1546;47.208;9.038;2023-05-10T10:49:51;4.13;;;0.90;;
3070;SDS011;1546;47.208;9.038;2023-05-10T10:52:30;4.10;;;1.00;;
3070;SDS011;1546;47.208;9.038;2023-05-10T10:55:00;7.75;;;1.40;;
3070;SDS011;1546;47.208;9.038;2023-05-10T10:57:30;4.47;;;0.85;;
3070;SDS011;1546;47.208;9.038;2023-05-10T11:00:17;3.20;;;0.90;;
3070;SDS011;1546;47.208;9.038;2023-05-10T11:02:46;4.95;;;1.20;;
3070;SDS011;1546;47.208;9.038;2023-05-10T11:05:32;3.50;;;0.93;;
3070;SDS011;1546;47.208;9.038;2023-05-10T11:08:09;3.58;;;1.05;;
3070;SDS011;1546;47.208;9.038;2023-05-10T11:10:40;3.30;;;0.95;;
3070;SDS011;1546;47.208;9.038;2023-05-10T11:13:17;3.50;;;0.90;;
3070;SDS011;1546;47.208;9.038;2023-05-10T11:15:54;3.60;;;1.20;;
3070;SDS011;1546;47.208;9.038;2023-05-10T11:18:23;3.30;;;0.88;;
3070;SDS011;1546;47.208;9.038;2023-05-10T11:20:52;5.15;;;1.15;;
3070;SDS011;1546;47.208;9.038;2023-05-10T11:23:22;3.65;;;1.15;;
3070;SDS011;1546;47.208;9.038;2023-05-10T11:25:49;3.45;;;1.00;;
3070;SDS011;1546;47.208;9.038;2023-05-10T11:28:16;4.05;;;1.58;;
3070;SDS011;1546;47.208;9.038;2023-05-10T11:30:44;3.50;;;1.13;;
3070;SDS011;1546;47.208;9.038;2023-05-10T11:33:15;4.05;;;1.00;;
3070;SDS011;1546;47.208;9.038;2023-05-10T11:35:42;4.43;;;0.90;;
3070;SDS011;1546;47.208;9.038;2023-05-10T11:38:11;3.95;;;1.00;;
3070;SDS011;1546;47.208;9.038;2023-05-10T11:40:39;5.63;;;1.02;;
3070;SDS011;1546;47.208;9.038;2023-05-10T11:43:07;3.60;;;0.98;;
3070;SDS011;1546;47.208;9.038;2023-05-10T11:45:36;6.03;;;1.55;;
3070;SDS011;1546;47.208;9.038;2023-05-10T11:48:03;4.80;;;1.52;;
3070;SDS011;1546;47.208;9.038;2023-05-10T11:50:30;7.65;;;1.23;;
3070;SDS011;1546;47.208;9.038;2023-05-10T11:52:57;3.50;;;0.90;;
3070;SDS011;1546;47.208;9.038;2023-05-10T11:55:26;4.20;;;1.00;;
3070;SDS011;1546;47.208;9.038;2023-05-10T11:57:55;3.22;;;0.85;;
3070;SDS011;1546;47.208;9.038;2023-05-10T12:00:26;4.53;;;1.13;;
3070;SDS011;1546;47.208;9.038;2023-05-10T12:02:53;4.85;;;1.23;;
3070;SDS011;1546;47.208;9.038;2023-05-10T12:05:20;4.57;;;1.20;;
3070;SDS011;1546;47.208;9.038;2023-05-10T12:07:47;3.90;;;1.05;;
3070;SDS011;1546;47.208;9.038;2023-05-10T12:10:14;4.40;;;1.10;;
3070;SDS011;1546;47.208;9.038;2023-05-10T12:12:44;3.75;;;0.80;;
3070;SDS011;1546;47.208;9.038;2023-05-10T12:15:16;3.95;;;1.00;;
3070;SDS011;1546;47.208;9.038;2023-05-10T12:17:45;7.63;;;1.20;;
3070;SDS011;1546;47.208;9.038;2023-05-10T12:20:12;4.45;;;1.23;;
3070;SDS011;1546;47.208;9.038;2023-05-10T12:22:40;5.00;;;1.40;;
3070;SDS011;1546;47.208;9.038;2023-05-10T12:25:09;4.10;;;1.10;;
3070;SDS011;1546;47.208;9.038;2023-05-10T12:27:36;3.67;;;1.15;;
3070;SDS011;1546;47.208;9.038;2023-05-10T12:30:05;3.30;;;0.93;;
3070;SDS011;1546;47.208;9.038;2023-05-10T12:32:39;4.25;;;1.70;;
3070;SDS011;1546;47.208;9.038;2023-05-10T12:35:07;3.47;;;1.10;;
3070;SDS011;1546;47.208;9.038;2023-05-10T12:37:34;3.53;;;1.10;;
3070;SDS011;1546;47.208;9.038;2023-05-10T12:40:05;4.55;;;1.20;;
3070;SDS011;1546;47.208;9.038;2023-05-10T12:42:34;5.28;;;1.38;;
3070;SDS011;1546;47.208;9.038;2023-05-10T12:45:02;5.80;;;1.10;;
3070;SDS011;1546;47.208;9.038;2023-05-10T12:47:32;4.20;;;1.20;;
3070;SDS011;1546;47.208;9.038;2023-05-10T12:49:59;3.70;;;1.20;;
3070;SDS011;1546;47.208;9.038;2023-05-10T12:52:27;5.70;;;1.88;;
3070;SDS011;1546;47.208;9.038;2023-05-10T12:54:55;5.45;;;1.45;;
3070;SDS011;1546;47.208;9.038;2023-05-10T12:57:22;4.10;;;1.50;;
3070;SDS011;1546;47.208;9.038;2023-05-10T12:59:48;4.10;;;1.45;;
3070;SDS011;1546;47.208;9.038;2023-05-10T13:02:15;4.40;;;1.50;;
3070;SDS011;1546;47.208;9.038;2023-05-10T13:04:44;4.53;;;1.40;;
3070;SDS011;1546;47.208;9.038;2023-05-10T13:07:12;4.03;;;1.35;;
3070;SDS011;1546;47.208;9.038;2023-05-10T13:09:39;4.07;;;1.20;;
3070;SDS011;1546;47.208;9.038;2023-05-10T13:12:06;3.83;;;1.02;;
3070;SDS011;1546;47.208;9.038;2023-05-10T13:14:33;5.90;;;1.30;;
3070;SDS011;1546;47.208;9.038;2023-05-10T13:17:00;4.72;;;1.10;;
3070;SDS011;1546;47.208;9.038;2023-05-10T13:19:27;4.57;;;1.20;;
3070;SDS011;1546;47.208;9.038;2023-05-10T13:21:55;3.35;;;1.00;;
3070;SDS011;1546;47.208;9.038;2023-05-10T13:24:23;3.78;;;1.48;;
3070;SDS011;1546;47.208;9.038;2023-05-10T13:26:49;3.42;;;1.10;;
3070;SDS011;1546;47.208;9.038;2023-05-10T13:29:16;4.95;;;1.67;;
3070;SDS011;1546;47.208;9.038;2023-05-10T13:31:44;5.28;;;1.55;;
3070;SDS011;1546;47.208;9.038;2023-05-10T13:34:11;3.70;;;1.20;;
3070;SDS011;1546;47.208;9.038;2023-05-10T13:36:37;3.70;;;1.23;;
3070;SDS011;1546;47.208;9.038;2023-05-10T13:39:06;5.90;;;1.15;;
3070;SDS011;1546;47.208;9.038;2023-05-10T13:41:33;4.75;;;1.88;;
3070;SDS011;1546;47.208;9.038;2023-05-10T13:44:00;4.85;;;1.52;;
3070;SDS011;1546;47.208;9.038;2023-05-10T13:46:28;4.18;;;1.80;;
3070;SDS011;1546;47.208;9.038;2023-05-10T13:48:55;4.38;;;1.50;;
3070;SDS011;1546;47.208;9.038;2023-05-10T13:51:22;5.20;;;2.30;;
3070;SDS011;1546;47.208;9.038;2023-05-10T13:53:49;5.03;;;1.20;;
3070;SDS011;1546;47.208;9.038;2023-05-10T13:56:18;6.45;;;1.38;;
3070;SDS011;1546;47.208;9.038;2023-05-10T13:58:45;6.80;;;1.30;;
3070;SDS011;1546;47.208;9.038;2023-05-10T14:01:12;3.70;;;1.10;;
3070;SDS011;1546;47.208;9.038;2023-05-10T14:03:39;3.58;;;1.13;;
3070;SDS011;1546;47.208;9.038;2023-05-10T14:06:06;4.38;;;1.30;;
3070;SDS011;1546;47.208;9.038;2023-05-10T14:08:34;4.85;;;1.02;;
3070;SDS011;1546;47.208;9.038;2023-05-10T14:11:01;4.20;;;1.20;;
3070;SDS011;1546;47.208;9.038;2023-05-10T14:13:29;4.75;;;1.38;;
3070;SDS011;1546;47.208;9.038;2023-05-10T14:15:56;6.35;;;1.27;;
3070;SDS011;1546;47.208;9.038;2023-05-10T14:18:25;5.85;;;1.55;;
3070;SDS011;1546;47.208;9.038;2023-05-10T14:20:52;4.05;;;1.20;;
3070;SDS011;1546;47.208;9.038;2023-05-10T14:23:19;4.15;;;1.35;;
3070;SDS011;1546;47.208;9.038;2023-05-10T14:25:49;4.15;;;1.63;;
3070;SDS011;1546;47.208;9.038;2023-05-10T14:28:16;5.45;;;2.50;;
3070;SDS011;1546;47.208;9.038;2023-05-10T14:30:45;5.85;;;2.13;;
3070;SDS011;1546;47.208;9.038;2023-05-10T14:33:11;4.20;;;1.73;;
3070;SDS011;1546;47.208;9.038;2023-05-10T14:35:38;4.43;;;1.02;;
3070;SDS011;1546;47.208;9.038;2023-05-10T14:38:05;4.40;;;1.67;;
3070;SDS011;1546;47.208;9.038;2023-05-10T14:40:32;4.63;;;1.20;;
3070;SDS011;1546;47.208;9.038;2023-05-10T14:42:59;6.32;;;2.50;;
3070;SDS011;1546;47.208;9.038;2023-05-10T14:45:26;3.92;;;1.17;;
3070;SDS011;1546;47.208;9.038;2023-05-10T14:47:54;4.47;;;1.25;;
3070;SDS011;1546;47.208;9.038;2023-05-10T14:50:21;3.60;;;1.05;;
3070;SDS011;1546;47.208;9.038;2023-05-10T14:52:48;3.88;;;1.30;;
3070;SDS011;1546;47.208;9.038;2023-05-10T14:55:15;4.50;;;1.25;;
3070;SDS011;1546;47.208;9.038;2023-05-10T14:57:42;4.63;;;1.35;;
3070;SDS011;1546;47.208;9.038;2023-05-10T15:00:12;6.28;;;1.50;;
3070;SDS011;1546;47.208;9.038;2023-05-10T15:02:41;4.35;;;1.63;;
3070;SDS011;1546;47.208;9.038;2023-05-10T15:05:09;5.60;;;1.65;;
3070;SDS011;1546;47.208;9.038;2023-05-10T15:07:36;3.92;;;1.15;;
3070;SDS011;1546;47.208;9.038;2023-05-10T15:10:03;3.78;;;1.20;;
3070;SDS011;1546;47.208;9.038;2023-05-10T15:12:31;5.18;;;1.30;;
3070;SDS011;1546;47.208;9.038;2023-05-10T15:14:58;5.30;;;1.10;;
3070;SDS011;1546;47.208;9.038;2023-05-10T15:17:25;4.25;;;1.52;;
3070;SDS011;1546;47.208;9.038;2023-05-10T15:19:51;3.78;;;0.95;;
3070;SDS011;1546;47.208;9.038;2023-05-10T15:22:20;4.50;;;1.30;;
3070;SDS011;1546;47.208;9.038;2023-05-10T15:24:47;5.15;;;0.88;;